METAR AND TAF INFORMATION
METAR FOR LFLB
ADDS - METARS form results

(1129 UTC 23 May 2019)
Data provider http://aviationweather.gov/metar/data/
 
METAR text: LFLB 231100Z AUTO 36004KT 310V030 CAVOK 21/09 Q1017 NOSIG
Conditions at: LFLB (CHAMBERY/AIX BAI, FR) observed 1100 UTC 23 May 2019
Temperature: 21.0°C (70°F)
Dewpoint: 9.0°C (48°F) [RH = 46%]
Pressure (altimeter): 30.03 inches Hg (1017.0 mb)
Winds: from the N (360 degrees) at 5 MPH (4 knots; 2.1 m/s)
Visibility: 6 or more miles (10+ km)
Ceiling: ceiling and visibility are OK
Clouds: unknown
Weather: no significant weather observed at this time

METAR text: LFLB 231030Z AUTO 36004KT 300V050 CAVOK 20/10 Q1017 NOSIG
Conditions at: LFLB (CHAMBERY/AIX BAI, FR) observed 1030 UTC 23 May 2019
Temperature: 20.0°C (68°F)
Dewpoint: 10.0°C (50°F) [RH = 53%]
Pressure (altimeter): 30.03 inches Hg (1017.0 mb)
Winds: from the N (360 degrees) at 5 MPH (4 knots; 2.1 m/s)
Visibility: 6 or more miles (10+ km)
Ceiling: ceiling and visibility are OK
Clouds: unknown
Weather: no significant weather observed at this time

Forecast for: LFLB (CHAMBERY/AIX BAI, FR)
Text: TAF LFLB 231100Z 2312/2412 01006KT CAVOK
Forecast period: 1200 to 1600 UTC 23 May 2019
Forecast type: FROM: standard forecast or significant change
Winds: from the N (10 degrees) at 7 MPH (6 knots; 3.1 m/s)
Visibility: 6 or more miles 10+ km)
Ceiling: unknown
Clouds: missing
Weather: NSW  (no significant weather)
Text: BECMG 2316/2318 VRB03KT
Forecast period: 1600 UTC 23 May 2019 to 1200 UTC 24 May 2019
Forecast type: BECOMING: Conditions expected to become as follows by 1800 UTC 23 May 2019
Winds: variable direction winds at 3 MPH (3 knots; 1.5 m/s)
Visibility: 6 or more miles 10+ km)
Ceiling: unknown
Clouds: missing
Weather: NSW  (no significant weather)

AIRPORT MAP

RUNWAY INFORMATION
Runway 18 Runway length 6628 ft Runway width 148 ft
Runway elevation 769 ft Runway displaced threshold 755 ft Runway heading 176
Runway 36 Runway length 6628 ft Runway width 148 ft
Runway elevation 778 ft Runway displaced threshold 460 ft Runway heading 356

AIRPORT FREQUENCIES
Type APP Name CHAMBERY A Frequency 123.7 MHZ
Type ATIS Name CHAMBERY A Frequency 124.575 MHZ
Type TWR Name CHAMBERY T Frequency 118.3 MHZ

AIRPORT NEAR NAVIGATION AIDS